Time;durP1;ratioP1;P1;durP2;ratioP2;P2;SDS_P1;SDS_P2;PMS_P1;PMS_P2;Temp;Humidity;BMP_temperature;BMP_pressure;BME280_temperature;BME280_humidity;BME280_pressure;Samples;Min_cycle;Max_cycle;Signal;HPM_P1;HPM_P2
2021/12/02 00:00:39;;;;;;;3.77;3.47;;;6.40;1.00;;;;;;6261785;28;20652;-59
2021/12/02 00:03:43;;;;;;;2.87;2.77;;;6.40;1.00;;;;;;6260954;28;20540;-59
2021/12/02 00:06:46;;;;;;;3.57;3.30;;;6.70;1.00;;;;;;6262039;28;20258;-56
2021/12/02 00:09:48;;;;;;;3.13;2.93;;;6.40;1.00;;;;;;6259216;28;20308;-56
2021/12/02 00:12:53;;;;;;;3.40;3.10;;;6.60;1.00;;;;;;6263559;28;20284;-56
2021/12/02 00:16:01;;;;;;;3.40;3.10;;;6.40;1.00;;;;;;6261495;28;20395;-55
2021/12/02 00:22:26;;;;;;;3.60;3.40;;;6.30;1.00;;;;;;6261448;28;20275;-57
2021/12/02 00:25:28;;;;;;;3.63;3.43;;;6.40;1.00;;;;;;6264354;28;20484;-56
2021/12/02 00:28:32;;;;;;;7.40;3.47;;;6.30;1.00;;;;;;6261134;28;20240;-55
2021/12/02 00:31:38;;;;;;;3.20;3.07;;;6.30;1.00;;;;;;6254989;28;20248;-58
2021/12/02 00:34:44;;;;;;;3.03;3.00;;;6.20;1.00;;;;;;6258362;28;20263;-55
2021/12/02 00:37:47;;;;;;;3.20;3.03;;;6.30;1.00;;;;;;6261704;28;20229;-57
2021/12/02 00:40:51;;;;;;;3.13;2.93;;;6.30;1.00;;;;;;6260467;28;20316;-57
2021/12/02 00:43:56;;;;;;;3.23;2.97;;;6.30;1.00;;;;;;6260905;28;20234;-54
2021/12/02 00:47:02;;;;;;;2.97;2.80;;;6.20;1.00;;;;;;6257077;28;20329;-58
2021/12/02 00:50:06;;;;;;;3.37;3.13;;;6.20;1.00;;;;;;6260181;28;20498;-54
2021/12/02 00:53:11;;;;;;;3.27;3.00;;;6.20;1.00;;;;;;6260199;28;20340;-56
2021/12/02 00:56:16;;;;;;;4.40;3.77;;;6.20;1.00;;;;;;6251824;28;20357;-57
2021/12/02 00:59:20;;;;;;;3.67;3.47;;;5.90;1.00;;;;;;6259935;28;20317;-57
2021/12/02 01:02:24;;;;;;;3.00;2.90;;;5.70;7.30;;;;;;6260427;28;20246;-57
2021/12/02 01:05:28;;;;;;;3.20;3.00;;;5.50;17.00;;;;;;6255858;28;20322;-55
2021/12/02 01:08:31;;;;;;;3.53;3.37;;;5.30;27.20;;;;;;6260215;28;20377;-56
2021/12/02 01:11:35;;;;;;;3.20;3.00;;;4.90;30.30;;;;;;6244939;28;20333;-57
2021/12/02 01:14:37;;;;;;;3.60;3.30;;;4.80;34.80;;;;;;6260701;28;20230;-54
2021/12/02 01:17:42;;;;;;;2.87;2.77;;;4.70;35.80;;;;;;6260459;28;20376;-56
2021/12/02 01:20:48;;;;;;;3.03;2.90;;;4.50;37.20;;;;;;6257688;28;20245;-55
2021/12/02 01:23:53;;;;;;;2.70;2.70;;;4.40;31.40;;;;;;6248650;28;20317;-55
2021/12/02 01:26:58;;;;;;;2.70;2.70;;;4.30;27.90;;;;;;6260377;28;20295;-54
2021/12/02 01:30:01;;;;;;;2.97;2.97;;;4.30;23.90;;;;;;6259146;28;20226;-55
2021/12/02 01:33:07;;;;;;;2.67;2.67;;;4.40;26.50;;;;;;6259720;28;20263;-54
2021/12/02 01:36:11;;;;;;;3.10;3.10;;;4.30;29.10;;;;;;6260112;28;20329;-55
2021/12/02 01:39:14;;;;;;;2.83;2.63;;;4.20;29.50;;;;;;6253983;28;20238;-56
2021/12/02 01:42:23;;;;;;;2.60;2.60;;;4.50;29.20;;;;;;6261273;28;20241;-56
2021/12/02 01:45:28;;;;;;;2.80;2.80;;;4.30;27.60;;;;;;6257811;28;20249;-55
2021/12/02 01:48:38;;;;;;;3.03;2.83;;;4.20;22.80;;;;;;6260708;28;20821;-56
2021/12/02 01:55:44;;;;;;;2.53;2.50;;;4.10;15.30;;;;;;6253415;28;20303;-57
2021/12/02 01:58:49;;;;;;;2.80;2.80;;;4.40;13.00;;;;;;6256930;28;20230;-56
2021/12/02 02:01:58;;;;;;;2.80;2.80;;;4.20;10.40;;;;;;6262830;28;20830;-55
2021/12/02 02:05:07;;;;;;;2.80;2.80;;;4.10;8.40;;;;;;6260638;28;20319;-55
2021/12/02 02:08:15;;;;;;;2.60;2.60;;;4.50;9.50;;;;;;6264799;28;20245;-55
2021/12/02 02:11:18;;;;;;;3.20;3.03;;;4.20;6.50;;;;;;6261290;28;20657;-56
2021/12/02 02:14:22;;;;;;;3.10;2.90;;;4.40;6.50;;;;;;6249826;28;20734;-55
2021/12/02 02:17:27;;;;;;;3.10;3.00;;;4.20;4.90;;;;;;6265241;28;20317;-55
2021/12/02 02:20:39;;;;;;;2.80;2.60;;;4.20;2.20;;;;;;6262026;28;20380;-55
2021/12/02 02:23:46;;;;;;;2.73;2.73;;;4.30;1.70;;;;;;6257636;28;20524;-55
2021/12/02 02:26:49;;;;;;;2.70;2.70;;;4.20;1.00;;;;;;6264119;28;20318;-55
2021/12/02 02:29:52;;;;;;;2.80;2.70;;;4.30;2.40;;;;;;6260398;28;20738;-54
2021/12/02 02:32:55;;;;;;;2.77;2.73;;;4.60;3.10;;;;;;6259754;28;20282;-55
2021/12/02 02:35:59;;;;;;;3.53;3.00;;;4.40;6.00;;;;;;6263886;28;20246;-56
2021/12/02 02:39:03;;;;;;;3.50;3.30;;;4.40;7.50;;;;;;6256596;28;20851;-55
2021/12/02 02:42:08;;;;;;;3.07;3.07;;;4.40;9.10;;;;;;6264238;28;20626;-57
2021/12/02 02:45:11;;;;;;;3.40;3.10;;;3.90;8.70;;;;;;6262998;28;20763;-56
2021/12/02 02:48:14;;;;;;;2.80;2.70;;;4.10;9.50;;;;;;6261377;28;20391;-55
2021/12/02 02:51:18;;;;;;;2.90;2.80;;;4.30;10.00;;;;;;6263868;28;20241;-56
2021/12/02 02:54:23;;;;;;;2.90;2.80;;;4.40;10.10;;;;;;6262730;28;20257;-55
2021/12/02 02:57:29;;;;;;;3.27;3.17;;;4.50;9.70;;;;;;6261850;28;20304;-54
2021/12/02 03:00:34;;;;;;;3.20;3.03;;;4.20;7.50;;;;;;6262930;28;20313;-55
2021/12/02 03:03:43;;;;;;;3.77;3.37;;;4.30;8.30;;;;;;6261267;28;20241;-55
2021/12/02 03:06:52;;;;;;;3.30;3.20;;;4.20;7.30;;;;;;6261953;28;20249;-56
2021/12/02 03:10:02;;;;;;;3.50;3.30;;;4.30;7.00;;;;;;6257560;28;20238;-55
2021/12/02 03:13:14;;;;;;;2.80;2.70;;;4.40;6.30;;;;;;6263167;28;20258;-55
2021/12/02 03:19:41;;;;;;;3.40;3.20;;;4.40;5.70;;;;;;6256572;28;20234;-56
2021/12/02 03:22:45;;;;;;;3.30;3.17;;;4.50;7.70;;;;;;6262886;28;20760;-54
2021/12/02 03:25:48;;;;;;;3.17;3.07;;;4.40;9.20;;;;;;6262135;28;20325;-54
2021/12/02 03:28:52;;;;;;;3.23;3.03;;;4.30;10.50;;;;;;6261896;28;20518;-55
2021/12/02 03:31:55;;;;;;;3.70;3.50;;;4.30;10.30;;;;;;6255481;28;20238;-56
2021/12/02 03:34:58;;;;;;;3.10;3.10;;;4.20;11.10;;;;;;6258674;28;20321;-58
2021/12/02 03:38:02;;;;;;;3.07;2.90;;;4.20;11.10;;;;;;6268433;28;20244;-56
2021/12/02 03:41:05;;;;;;;3.33;3.20;;;4.40;10.60;;;;;;6262922;28;20985;-54
2021/12/02 03:44:09;;;;;;;3.83;3.33;;;4.20;10.40;;;;;;6259593;28;20287;-54
2021/12/02 03:47:12;;;;;;;3.37;3.17;;;4.50;9.90;;;;;;6261798;28;20373;-55
2021/12/02 03:50:15;;;;;;;3.70;3.50;;;4.30;7.00;;;;;;6261553;28;20727;-54
2021/12/02 03:53:19;;;;;;;3.20;3.10;;;4.20;5.90;;;;;;6256773;28;20317;-55
2021/12/02 03:56:23;;;;;;;4.03;3.23;;;4.50;6.60;;;;;;6256408;28;20244;-55
2021/12/02 03:59:26;;;;;;;3.43;3.33;;;4.40;8.20;;;;;;6258016;28;20293;-56
2021/12/02 04:02:29;;;;;;;3.00;2.90;;;4.40;9.00;;;;;;6261598;28;20328;-56
2021/12/02 04:05:32;;;;;;;3.10;2.97;;;4.50;9.70;;;;;;6261570;28;20238;-54
2021/12/02 04:08:44;;;;;;;3.33;3.20;;;4.40;10.60;;;;;;6254226;28;20329;-56
2021/12/02 04:11:53;;;;;;;4.17;3.20;;;4.20;11.60;;;;;;6255699;28;20227;-51
2021/12/02 04:15:00;;;;;;;4.00;3.27;;;4.50;10.70;;;;;;6260145;28;20277;-55
2021/12/02 04:18:02;;;;;;;4.03;3.83;;;4.30;9.00;;;;;;6262299;28;20385;-55
2021/12/02 04:21:05;;;;;;;3.47;3.37;;;4.30;8.30;;;;;;6262099;28;20237;-55
2021/12/02 04:24:09;;;;;;;3.93;3.20;;;4.10;8.00;;;;;;6259247;28;20307;-54
2021/12/02 04:27:12;;;;;;;2.87;2.87;;;4.10;7.10;;;;;;6260583;28;20226;-55
2021/12/02 04:30:17;;;;;;;3.40;3.30;;;4.20;6.40;;;;;;6260731;28;20755;-55
2021/12/02 04:33:20;;;;;;;2.97;2.97;;;4.30;6.80;;;;;;6243995;28;20299;-55
2021/12/02 04:36:23;;;;;;;3.50;3.30;;;4.10;7.10;;;;;;6255856;28;20337;-55
2021/12/02 04:39:27;;;;;;;4.57;3.10;;;4.00;6.80;;;;;;6258081;28;20320;-55
2021/12/02 04:42:30;;;;;;;5.07;3.53;;;4.00;6.90;;;;;;6265734;28;20318;-56
2021/12/02 04:45:33;;;;;;;3.50;3.20;;;4.10;6.80;;;;;;6259425;28;20238;-56
2021/12/02 04:48:36;;;;;;;3.40;3.30;;;4.10;8.20;;;;;;6257663;28;20580;-55
2021/12/02 04:51:38;;;;;;;3.20;3.10;;;3.80;6.20;;;;;;6258310;28;20239;-59
2021/12/02 04:54:42;;;;;;;4.00;3.10;;;4.00;6.60;;;;;;6267562;28;20483;-54
2021/12/02 04:57:45;;;;;;;3.70;3.60;;;3.80;6.80;;;;;;6265790;28;20719;-55
2021/12/02 05:00:50;;;;;;;4.30;3.83;;;4.00;8.00;;;;;;6254492;28;20227;-54
2021/12/02 05:03:52;;;;;;;3.40;3.30;;;4.00;8.50;;;;;;6250260;28;20930;-52
2021/12/02 05:06:55;;;;;;;4.73;3.30;;;3.80;7.60;;;;;;6262299;28;20341;-55
2021/12/02 05:09:59;;;;;;;3.07;2.97;;;3.80;7.10;;;;;;6261899;28;20264;-54
2021/12/02 05:13:02;;;;;;;3.63;3.53;;;3.90;5.60;;;;;;6260134;28;20379;-55
2021/12/02 05:16:05;;;;;;;3.77;3.57;;;4.00;6.00;;;;;;6257936;28;20376;-56
2021/12/02 05:19:08;;;;;;;4.63;3.07;;;3.90;6.10;;;;;;6243733;28;20241;-54
2021/12/02 05:22:11;;;;;;;3.33;3.23;;;4.00;6.20;;;;;;6269116;28;20324;-56
2021/12/02 05:25:15;;;;;;;3.27;3.17;;;3.90;6.10;;;;;;6262657;28;20245;-55
2021/12/02 05:28:18;;;;;;;3.10;3.10;;;3.70;6.70;;;;;;6259072;28;20249;-54
2021/12/02 05:31:22;;;;;;;3.10;3.00;;;3.80;7.10;;;;;;6262245;28;20282;-54
2021/12/02 05:34:25;;;;;;;2.97;2.97;;;3.50;6.40;;;;;;6254316;28;20917;-55
2021/12/02 05:37:27;;;;;;;3.20;3.00;;;3.80;8.80;;;;;;6264715;28;20529;-54
2021/12/02 05:40:32;;;;;;;3.40;3.20;;;3.50;8.00;;;;;;6265512;28;20434;-55
2021/12/02 05:43:35;;;;;;;3.13;3.13;;;3.70;7.20;;;;;;6270117;28;20681;-56
2021/12/02 05:46:38;;;;;;;3.23;3.03;;;3.70;6.90;;;;;;6259241;28;20706;-55
2021/12/02 05:49:41;;;;;;;3.20;2.97;;;3.80;7.40;;;;;;6262074;28;20265;-57
2021/12/02 05:52:49;;;;;;;3.10;3.10;;;3.70;7.20;;;;;;6264631;28;20318;-54
2021/12/02 05:55:53;;;;;;;2.90;2.90;;;3.60;5.90;;;;;;6264715;28;20238;-54
2021/12/02 05:58:56;;;;;;;3.00;2.90;;;3.80;5.00;;;;;;6266198;28;20327;-55
2021/12/02 06:01:58;;;;;;;3.73;3.10;;;3.60;5.60;;;;;;6255332;28;20249;-56
2021/12/02 06:05:01;;;;;;;3.43;3.23;;;3.40;5.80;;;;;;6265370;28;20233;-55
2021/12/02 06:08:05;;;;;;;3.70;3.60;;;3.70;6.10;;;;;;6265590;28;20244;-55
2021/12/02 06:11:09;;;;;;;3.50;3.40;;;3.80;4.90;;;;;;6267476;28;20380;-54
2021/12/02 06:14:13;;;;;;;3.33;3.33;;;3.80;5.50;;;;;;6264764;28;20230;-55
2021/12/02 06:17:16;;;;;;;3.07;3.07;;;3.60;4.30;;;;;;6259218;28;20226;-54
2021/12/02 06:20:19;;;;;;;3.30;3.20;;;3.50;3.80;;;;;;6269281;28;20230;-55
2021/12/02 06:23:22;;;;;;;5.07;3.60;;;3.70;2.90;;;;;;6267141;28;20234;-55
2021/12/02 06:26:28;;;;;;;3.37;3.00;;;3.50;1.70;;;;;;6261274;28;20315;-55
2021/12/02 06:29:31;;;;;;;3.37;3.37;;;3.50;1.90;;;;;;6263621;28;20306;-56
2021/12/02 06:32:34;;;;;;;3.60;3.50;;;3.50;1.70;;;;;;6259589;28;20285;-55
2021/12/02 06:35:37;;;;;;;4.10;3.20;;;3.00;1.00;;;;;;6256337;28;20321;-55
2021/12/02 06:38:40;;;;;;;3.30;3.10;;;3.60;2.30;;;;;;6265135;28;20256;-57
2021/12/02 06:41:44;;;;;;;3.37;3.20;;;3.70;1.00;;;;;;6270322;28;20286;-56
2021/12/02 06:44:47;;;;;;;3.50;3.30;;;3.60;1.80;;;;;;6269790;28;20721;-55
2021/12/02 06:47:51;;;;;;;3.63;3.43;;;3.60;2.20;;;;;;6263826;28;20268;-55
2021/12/02 06:50:54;;;;;;;3.30;3.23;;;3.40;3.40;;;;;;6265560;28;20842;-56
2021/12/02 06:53:57;;;;;;;3.47;3.27;;;3.40;3.30;;;;;;6268343;28;20609;-55
2021/12/02 06:57:21;;;;;;;3.33;3.30;;;3.50;4.10;;;;;;6264446;28;20241;-55
2021/12/02 07:00:24;;;;;;;3.17;3.10;;;3.40;4.70;;;;;;6264851;28;20831;-56
2021/12/02 07:03:27;;;;;;;3.10;3.10;;;3.50;4.80;;;;;;6264757;28;20238;-56
2021/12/02 07:06:30;;;;;;;3.20;3.20;;;3.40;4.00;;;;;;6263494;28;20723;-54
2021/12/02 07:09:33;;;;;;;3.03;3.00;;;3.30;4.30;;;;;;6268452;28;20318;-56
2021/12/02 07:12:39;;;;;;;3.80;3.70;;;3.40;3.90;;;;;;6266589;28;20252;-55
2021/12/02 07:15:46;;;;;;;3.53;3.53;;;3.20;3.70;;;;;;6269397;28;20761;-54
2021/12/02 07:18:55;;;;;;;3.63;3.50;;;3.40;3.50;;;;;;6264302;28;20734;-56
2021/12/02 07:21:58;;;;;;;3.20;3.20;;;3.40;2.30;;;;;;6260748;28;20235;-55
2021/12/02 07:25:01;;;;;;;3.60;3.43;;;3.40;1.70;;;;;;6261119;28;20238;-54
2021/12/02 07:28:05;;;;;;;3.50;3.40;;;3.20;1.00;;;;;;6261312;28;20395;-56
2021/12/02 07:31:09;;;;;;;3.10;3.00;;;3.30;1.60;;;;;;6266522;28;20585;-53
2021/12/02 07:34:12;;;;;;;3.73;3.53;;;3.40;1.00;;;;;;6266218;28;20615;-56
2021/12/02 07:37:16;;;;;;;3.30;3.10;;;3.20;1.00;;;;;;6266977;28;20623;-55
2021/12/02 07:40:21;;;;;;;3.57;3.57;;;3.30;1.00;;;;;;6264150;28;20244;-55
2021/12/02 07:43:25;;;;;;;3.37;3.33;;;3.30;1.00;;;;;;6263843;28;20721;-58
2021/12/02 07:46:28;;;;;;;4.07;3.80;;;3.30;1.00;;;;;;6260152;28;20762;-57
2021/12/02 07:49:31;;;;;;;3.00;2.90;;;3.40;1.00;;;;;;6269441;28;20249;-56
2021/12/02 07:52:35;;;;;;;4.17;4.07;;;3.10;1.00;;;;;;6256133;28;20238;-54
2021/12/02 07:55:41;;;;;;;3.50;3.40;;;3.40;1.00;;;;;;6257446;28;20788;-56
2021/12/02 07:58:49;;;;;;;3.90;3.70;;;3.30;1.00;;;;;;6270697;28;20387;-57
2021/12/02 08:01:55;;;;;;;3.30;3.20;;;3.40;1.00;;;;;;6272064;28;20240;-56
2021/12/02 08:04:58;;;;;;;3.47;3.30;;;3.30;1.00;;;;;;6262981;28;20240;-56
2021/12/02 08:08:02;;;;;;;3.53;3.43;;;3.40;1.00;;;;;;6256347;28;20324;-54
2021/12/02 08:11:06;;;;;;;3.27;3.20;;;3.40;1.00;;;;;;6253121;28;20282;-54
2021/12/02 08:14:15;;;;;;;3.70;3.67;;;3.20;1.00;;;;;;6259903;28;20233;-55
2021/12/02 08:17:18;;;;;;;3.77;3.20;;;3.30;1.00;;;;;;6259972;28;20246;-55
2021/12/02 08:20:23;;;;;;;3.50;3.20;;;3.40;1.00;;;;;;6268518;28;20412;-59
2021/12/02 08:23:26;;;;;;;3.83;3.73;;;3.20;1.00;;;;;;6267035;28;20245;-57
2021/12/02 08:26:31;;;;;;;2.67;2.67;;;3.50;1.00;;;;;;6264768;28;20234;-56
2021/12/02 08:29:35;;;;;;;3.40;3.23;;;3.40;1.00;;;;;;6258924;28;20489;-55
2021/12/02 08:32:41;;;;;;;3.27;3.07;;;3.30;1.00;;;;;;6266497;28;20391;-56
2021/12/02 08:35:45;;;;;;;3.27;3.00;;;3.30;1.00;;;;;;6262341;28;20234;-57
2021/12/02 08:38:48;;;;;;;4.00;3.70;;;3.30;1.00;;;;;;6261269;28;20753;-57
2021/12/02 08:41:54;;;;;;;3.63;3.53;;;3.10;1.00;;;;;;6262321;28;20300;-56
2021/12/02 08:44:58;;;;;;;3.87;3.67;;;3.20;1.00;;;;;;6258383;28;20234;-57
2021/12/02 08:48:02;;;;;;;4.43;3.67;;;3.40;1.00;;;;;;6269016;28;20299;-55
2021/12/02 08:51:05;;;;;;;3.67;3.60;;;3.40;1.00;;;;;;6266004;28;20238;-55
2021/12/02 08:54:08;;;;;;;3.60;3.40;;;3.40;1.00;;;;;;6260101;28;20283;-56
2021/12/02 08:57:11;;;;;;;3.37;3.37;;;3.50;1.00;;;;;;6265390;28;20245;-55
2021/12/02 09:00:17;;;;;;;3.83;3.67;;;3.40;1.00;;;;;;6266712;28;20286;-53
2021/12/02 09:03:20;;;;;;;3.70;3.50;;;3.50;1.00;;;;;;6267055;28;20777;-56
2021/12/02 09:06:24;;;;;;;6.47;3.67;;;3.50;1.00;;;;;;6259639;28;20361;-55
2021/12/02 09:09:27;;;;;;;4.00;3.80;;;3.20;1.00;;;;;;6262864;28;20363;-58
2021/12/02 09:12:31;;;;;;;3.83;3.53;;;3.20;1.00;;;;;;6267152;28;20332;-55
2021/12/02 09:15:35;;;;;;;3.43;3.23;;;3.30;1.00;;;;;;6258774;28;20241;-57
2021/12/02 09:18:38;;;;;;;3.83;3.53;;;3.30;1.00;;;;;;6262656;28;20291;-55
2021/12/02 09:21:41;;;;;;;3.60;3.37;;;3.70;1.00;;;;;;6263774;28;20853;-55
2021/12/02 09:24:44;;;;;;;3.13;3.03;;;3.70;1.00;;;;;;6268797;28;20259;-56
2021/12/02 09:27:47;;;;;;;2.90;2.80;;;3.80;1.00;;;;;;6266551;28;20316;-56
2021/12/02 09:30:51;;;;;;;3.40;3.23;;;3.70;1.00;;;;;;6260328;28;20622;-56
2021/12/02 09:33:53;;;;;;;3.67;3.57;;;3.80;1.00;;;;;;6266732;28;20356;-56
2021/12/02 09:36:56;;;;;;;3.30;3.13;;;3.50;1.00;;;;;;6264345;28;20331;-56
2021/12/02 09:39:59;;;;;;;3.53;3.33;;;3.90;1.00;;;;;;6260052;28;20626;-56
2021/12/02 09:43:03;;;;;;;4.10;3.80;;;3.80;1.00;;;;;;6263220;28;20244;-55
2021/12/02 09:46:07;;;;;;;5.47;3.53;;;3.70;1.00;;;;;;6259953;28;20332;-56
2021/12/02 09:49:12;;;;;;;3.13;2.93;;;3.80;1.00;;;;;;6261104;28;20301;-56
2021/12/02 09:52:17;;;;;;;3.80;3.40;;;3.70;1.00;;;;;;6267865;28;20677;-56
2021/12/02 09:55:24;;;;;;;3.77;3.43;;;3.90;1.00;;;;;;6263184;28;20723;-56
2021/12/02 09:58:28;;;;;;;3.40;3.20;;;4.10;1.00;;;;;;6255599;28;20226;-56
2021/12/02 10:01:39;;;;;;;4.13;3.93;;;3.80;1.00;;;;;;6265140;28;20243;-56
2021/12/02 10:04:48;;;;;;;3.20;3.20;;;4.00;1.00;;;;;;6252879;28;20250;-54
2021/12/02 10:07:53;;;;;;;4.20;3.13;;;4.10;1.00;;;;;;6260406;28;20944;-56
2021/12/02 10:10:58;;;;;;;3.53;3.40;;;4.10;1.00;;;;;;6253618;28;20317;-56
2021/12/02 10:14:22;;;;;;;3.50;3.30;;;4.10;1.00;;;;;;6264817;28;20803;-55
2021/12/02 10:17:35;;;;;;;4.07;3.53;;;4.30;1.00;;;;;;6262110;28;20322;-57
2021/12/02 10:20:41;;;;;;;4.53;3.27;;;4.10;1.00;;;;;;6276090;28;20235;-56
2021/12/02 10:23:46;;;;;;;3.40;3.30;;;4.20;1.00;;;;;;6271850;28;20260;-56
2021/12/02 10:26:52;;;;;;;3.70;3.50;;;4.00;1.00;;;;;;6267795;28;20317;-55
2021/12/02 10:30:21;;;;;;;3.27;3.17;;;4.10;1.00;;;;;;6267939;28;20611;-55
2021/12/02 10:33:33;;;;;;;3.60;3.40;;;4.20;1.00;;;;;;6263321;28;20496;-56
2021/12/02 10:36:39;;;;;;;3.60;3.43;;;4.20;1.00;;;;;;6250525;28;20323;-55
2021/12/02 10:39:55;;;;;;;5.50;3.07;;;4.20;1.00;;;;;;6270115;28;20338;-57
2021/12/02 10:43:07;;;;;;;5.40;3.93;;;4.10;1.00;;;;;;6272127;28;20241;-57
2021/12/02 10:46:15;;;;;;;3.17;3.00;;;4.30;1.00;;;;;;6270420;28;20365;-56
2021/12/02 10:49:20;;;;;;;3.80;3.50;;;4.20;1.00;;;;;;6272645;28;20609;-56
2021/12/02 10:52:26;;;;;;;3.63;3.30;;;4.40;1.00;;;;;;6266802;28;20877;-56
2021/12/02 10:55:31;;;;;;;3.30;3.30;;;4.10;1.00;;;;;;6263591;28;20716;-55
2021/12/02 10:58:34;;;;;;;3.67;3.47;;;4.20;1.00;;;;;;6255803;28;20832;-59
2021/12/02 11:01:39;;;;;;;3.73;3.63;;;4.40;1.00;;;;;;6276507;28;20716;-55
2021/12/02 11:04:45;;;;;;;3.33;3.10;;;4.20;1.00;;;;;;6272347;28;20242;-57
2021/12/02 11:07:54;;;;;;;3.30;3.10;;;4.40;1.00;;;;;;6267588;28;20597;-56
2021/12/02 11:10:56;;;;;;;3.13;3.03;;;4.40;1.00;;;;;;6273004;28;20291;-57
2021/12/02 11:14:01;;;;;;;3.27;3.27;;;4.40;1.00;;;;;;6269763;28;20739;-56
2021/12/02 11:17:08;;;;;;;5.13;3.70;;;4.50;1.00;;;;;;6263347;28;20324;-56
2021/12/02 11:20:18;;;;;;;3.50;3.33;;;4.60;1.00;;;;;;6268553;28;20754;-56
2021/12/02 11:23:28;;;;;;;4.40;4.20;;;4.80;1.00;;;;;;6263514;28;20317;-57
2021/12/02 11:26:31;;;;;;;3.50;3.30;;;4.70;1.00;;;;;;6261097;28;20266;-55
2021/12/02 11:29:53;;;;;;;3.40;3.30;;;4.70;1.00;;;;;;6263807;28;20229;-56
2021/12/02 11:32:58;;;;;;;4.30;3.60;;;4.60;1.00;;;;;;6253167;28;20321;-56
2021/12/02 11:36:04;;;;;;;3.50;3.30;;;4.60;1.00;;;;;;6261216;28;20329;-56
2021/12/02 11:39:08;;;;;;;3.80;3.40;;;4.60;1.00;;;;;;6262784;28;20587;-56
2021/12/02 11:42:10;;;;;;;3.83;3.00;;;4.90;1.00;;;;;;6263562;28;20238;-56
2021/12/02 11:45:15;;;;;;;3.30;3.20;;;4.90;1.00;;;;;;6263246;28;20564;-56
2021/12/02 11:48:20;;;;;;;4.77;4.47;;;4.50;1.00;;;;;;6269944;28;20363;-56
2021/12/02 11:51:25;;;;;;;3.40;3.30;;;4.60;1.00;;;;;;6263354;28;20241;-56
2021/12/02 11:54:28;;;;;;;3.40;3.30;;;4.60;1.00;;;;;;6257307;28;20792;-56
2021/12/02 11:57:33;;;;;;;3.50;3.30;;;4.50;1.00;;;;;;6265578;28;20328;-56
2021/12/02 12:00:37;;;;;;;4.07;3.73;;;4.60;1.00;;;;;;6260259;28;20659;-56
2021/12/02 12:03:43;;;;;;;4.17;3.50;;;4.70;1.00;;;;;;6263806;28;20238;-55
2021/12/02 12:06:54;;;;;;;3.30;3.20;;;4.90;1.00;;;;;;6256946;28;20239;-56
2021/12/02 12:10:16;;;;;;;3.50;3.30;;;4.90;1.00;;;;;;6261124;28;20226;-56
2021/12/02 12:13:21;;;;;;;3.83;3.50;;;4.90;1.00;;;;;;6261902;28;20230;-56
2021/12/02 12:16:26;;;;;;;3.67;3.47;;;4.50;1.00;;;;;;6257713;28;20238;-56
2021/12/02 12:19:32;;;;;;;3.10;3.10;;;4.60;1.00;;;;;;6264375;28;20377;-55
2021/12/02 12:22:39;;;;;;;3.67;3.57;;;4.60;1.00;;;;;;6255398;28;20226;-57
2021/12/02 12:25:42;;;;;;;3.73;3.43;;;4.60;1.00;;;;;;6255032;28;21046;-56
2021/12/02 12:29:27;;;;;;;3.80;3.60;;;4.60;1.00;;;;;;6257169;28;20369;-57
2021/12/02 12:36:06;;;;;;;3.50;3.30;;;4.60;1.00;;;;;;6260939;28;20302;-56
2021/12/02 12:39:21;;;;;;;3.60;3.40;;;4.70;1.00;;;;;;6259936;28;20247;-55
2021/12/02 12:42:24;;;;;;;3.30;3.20;;;4.60;1.00;;;;;;6261328;28;20231;-56
2021/12/02 12:45:29;;;;;;;3.37;3.20;;;4.70;1.00;;;;;;6257820;28;20235;-57
2021/12/02 12:48:33;;;;;;;3.57;3.37;;;4.60;1.00;;;;;;6263111;28;20268;-61
2021/12/02 12:51:36;;;;;;;4.23;4.03;;;4.60;1.00;;;;;;6259213;28;20804;-57
2021/12/02 12:54:40;;;;;;;3.23;3.13;;;4.60;1.00;;;;;;6260394;28;20579;-57
2021/12/02 12:58:07;;;;;;;3.30;3.20;;;4.70;1.00;;;;;;6255356;28;20699;-57
2021/12/02 13:01:21;;;;;;;3.90;3.60;;;4.80;1.00;;;;;;6252113;28;20223;-57
2021/12/02 13:04:26;;;;;;;3.70;3.53;;;4.90;1.00;;;;;;6263614;28;20708;-57
2021/12/02 13:07:29;;;;;;;3.57;3.37;;;5.10;1.00;;;;;;6263598;28;20749;-57
2021/12/02 13:10:33;;;;;;;3.37;3.27;;;5.00;1.00;;;;;;6272308;28;20229;-56
2021/12/02 13:13:36;;;;;;;3.27;3.20;;;4.70;1.00;;;;;;6251749;28;20325;-54
2021/12/02 13:16:39;;;;;;;3.70;3.60;;;4.60;1.00;;;;;;6260230;28;20610;-56
2021/12/02 13:19:57;;;;;;;3.93;3.63;;;4.80;1.00;;;;;;6269537;28;20249;-56
2021/12/02 13:23:29;;;;;;;4.63;3.63;;;5.00;1.00;;;;;;6263888;28;20405;-56
2021/12/02 13:26:35;;;;;;;3.40;3.20;;;4.80;1.00;;;;;;6261029;28;20265;-61
2021/12/02 13:29:37;;;;;;;3.20;3.10;;;4.60;1.00;;;;;;6264543;28;20241;-57
2021/12/02 13:32:47;;;;;;;3.23;3.10;;;4.60;1.00;;;;;;6254432;28;20265;-56
2021/12/02 13:35:54;;;;;;;3.10;2.90;;;4.60;1.00;;;;;;6250378;28;20234;-55
2021/12/02 13:39:04;;;;;;;3.43;3.43;;;4.50;1.00;;;;;;6262154;28;20237;-59
2021/12/02 13:42:11;;;;;;;3.70;3.50;;;4.50;1.00;;;;;;6263082;28;20723;-57
2021/12/02 13:45:20;;;;;;;4.20;3.87;;;4.40;1.00;;;;;;6262722;28;20328;-54
2021/12/02 13:48:22;;;;;;;3.50;3.30;;;4.30;1.00;;;;;;6258560;28;20290;-57
2021/12/02 13:55:14;;;;;;;3.87;3.63;;;4.20;1.00;;;;;;6261653;28;20745;-56
2021/12/02 13:58:28;;;;;;;3.70;3.07;;;4.20;1.00;;;;;;6261091;28;20240;-55
2021/12/02 14:01:31;;;;;;;3.27;3.07;;;4.10;1.00;;;;;;6271694;28;20369;-56
2021/12/02 14:04:44;;;;;;;3.50;3.50;;;4.50;1.00;;;;;;6269161;28;20511;-55
2021/12/02 14:07:49;;;;;;;3.47;3.17;;;4.20;1.00;;;;;;6267734;28;20261;-56
2021/12/02 14:10:52;;;;;;;4.40;3.33;;;4.10;1.00;;;;;;6267132;28;20230;-55
2021/12/02 14:13:58;;;;;;;3.43;3.33;;;4.20;1.00;;;;;;6270836;28;20748;-56
2021/12/02 14:17:20;;;;;;;3.40;3.30;;;4.30;1.00;;;;;;6268725;28;20226;-55
2021/12/02 14:20:26;;;;;;;3.47;3.37;;;4.00;1.00;;;;;;6264203;28;20734;-56
2021/12/02 14:23:32;;;;;;;3.77;3.57;;;4.00;1.00;;;;;;6278852;28;20322;-56
2021/12/02 14:26:35;;;;;;;4.03;3.47;;;4.10;1.00;;;;;;6272074;28;20406;-57
2021/12/02 14:29:39;;;;;;;3.77;3.47;;;4.10;1.00;;;;;;6273267;28;20257;-62
2021/12/02 14:32:43;;;;;;;3.33;3.23;;;4.00;1.00;;;;;;6269955;28;20510;-57
2021/12/02 14:35:49;;;;;;;3.83;3.60;;;4.00;1.00;;;;;;6258947;28;20376;-55
2021/12/02 14:39:01;;;;;;;3.17;3.17;;;3.70;1.00;;;;;;6269788;28;20229;-56
2021/12/02 14:42:04;;;;;;;3.60;3.57;;;4.00;1.00;;;;;;6265519;28;20765;-56
2021/12/02 14:45:24;;;;;;;3.43;3.23;;;3.80;1.00;;;;;;6259978;28;20240;-56
2021/12/02 14:48:28;;;;;;;4.40;3.60;;;3.50;1.00;;;;;;6269532;28;20656;-57
2021/12/02 14:51:47;;;;;;;3.87;3.73;;;3.80;1.00;;;;;;6270460;28;20225;-56
2021/12/02 14:54:54;;;;;;;3.47;3.47;;;3.70;1.00;;;;;;6263852;28;20273;-55
2021/12/02 14:57:57;;;;;;;3.60;3.50;;;3.60;1.00;;;;;;6267788;28;20249;-56
2021/12/02 15:01:13;;;;;;;3.67;3.37;;;3.30;1.00;;;;;;6257356;28;20317;-56
2021/12/02 15:04:17;;;;;;;3.47;3.27;;;3.50;1.00;;;;;;6268260;28;20706;-56
2021/12/02 15:07:22;;;;;;;4.23;3.93;;;3.20;1.00;;;;;;6261551;28;20684;-56
2021/12/02 15:10:27;;;;;;;4.07;3.60;;;3.40;1.00;;;;;;6270769;28;20233;-56
2021/12/02 15:13:43;;;;;;;3.70;3.50;;;3.10;1.00;;;;;;6263270;28;20249;-56
2021/12/02 15:16:54;;;;;;;4.87;4.23;;;3.30;1.00;;;;;;6270777;28;20350;-56
2021/12/02 15:19:57;;;;;;;3.50;3.30;;;3.30;1.00;;;;;;6258427;28;20624;-55
2021/12/02 15:23:01;;;;;;;3.67;3.40;;;3.20;1.00;;;;;;6265399;28;20760;-53
2021/12/02 15:26:07;;;;;;;4.13;3.87;;;3.30;1.00;;;;;;6259875;28;20424;-54
2021/12/02 15:29:09;;;;;;;4.33;3.93;;;3.00;1.00;;;;;;6269781;28;20230;-53
2021/12/02 15:32:15;;;;;;;4.10;3.80;;;3.20;1.00;;;;;;6266354;28;20294;-55
2021/12/02 15:35:18;;;;;;;4.57;3.90;;;3.20;1.00;;;;;;6264865;28;20233;-56
2021/12/02 15:38:21;;;;;;;4.77;4.33;;;3.10;1.00;;;;;;6263693;28;20234;-57
2021/12/02 15:41:27;;;;;;;3.70;3.50;;;3.20;1.00;;;;;;6262171;28;20738;-56
2021/12/02 15:44:32;;;;;;;3.77;3.67;;;3.20;1.00;;;;;;6262428;28;20241;-56
2021/12/02 15:47:37;;;;;;;6.60;3.70;;;2.90;1.00;;;;;;6252469;28;20751;-55
2021/12/02 15:50:40;;;;;;;4.43;4.13;;;3.00;1.00;;;;;;6260811;28;20279;-56
2021/12/02 15:53:43;;;;;;;4.43;4.03;;;3.10;1.00;;;;;;6273788;28;20617;-56
2021/12/02 15:56:47;;;;;;;4.30;4.10;;;3.00;1.00;;;;;;6256358;28;20731;-55
2021/12/02 15:59:50;;;;;;;3.80;3.60;;;2.80;1.00;;;;;;6267537;28;20367;-56
2021/12/02 16:02:56;;;;;;;4.20;3.90;;;2.70;1.00;;;;;;6259636;28;20311;-55
2021/12/02 16:06:21;;;;;;;3.70;3.60;;;2.90;1.00;;;;;;6256460;28;20249;-56
2021/12/02 16:09:39;;;;;;;3.97;3.80;;;2.80;1.00;;;;;;6258199;28;20304;-55
2021/12/02 16:12:42;;;;;;;3.80;3.60;;;2.50;1.00;;;;;;6269217;28;20378;-56
2021/12/02 16:15:45;;;;;;;4.47;4.17;;;2.70;1.00;;;;;;6262971;28;20622;-55
2021/12/02 16:18:49;;;;;;;4.20;3.87;;;2.70;1.00;;;;;;6269999;28;20356;-56
2021/12/02 16:21:52;;;;;;;4.37;3.87;;;2.40;1.00;;;;;;6262472;28;20738;-55
2021/12/02 16:24:56;;;;;;;4.20;3.80;;;2.40;1.00;;;;;;6267754;28;20656;-54
2021/12/02 16:28:01;;;;;;;3.90;3.70;;;2.50;1.00;;;;;;6262494;28;20780;-57
2021/12/02 16:31:04;;;;;;;4.40;4.10;;;2.50;1.00;;;;;;6262359;28;20384;-55
2021/12/02 16:34:08;;;;;;;5.10;4.70;;;2.60;1.00;;;;;;6256782;28;20367;-56
2021/12/02 16:37:11;;;;;;;4.13;3.93;;;2.60;1.00;;;;;;6259284;28;20234;-55
2021/12/02 16:40:17;;;;;;;5.23;4.43;;;2.50;1.00;;;;;;6262866;28;20307;-56
2021/12/02 16:43:21;;;;;;;4.53;4.23;;;2.40;1.00;;;;;;6263353;28;20242;-54
2021/12/02 16:46:30;;;;;;;4.53;4.00;;;2.40;1.00;;;;;;6259359;28;20728;-56
2021/12/02 16:49:34;;;;;;;6.77;4.80;;;2.30;1.00;;;;;;6262171;28;20230;-50